Time;durP1;ratioP1;P1;durP2;ratioP2;P2;SDS_P1;SDS_P2;PMS_P1;PMS_P2;Temp;Humidity;BMP_temperature;BMP_pressure;BME280_temperature;BME280_humidity;BME280_pressure;Samples;Min_cycle;Max_cycle;Signal;HPM_P1;HPM_P2
2021/08/30 00:01:18;;;;;;;7.37;5.07;;;15.10;99.00;;;;;;5010437;28;20297;-73
2021/08/30 00:03:45;;;;;;;11.43;5.13;;;15.10;98.90;;;;;;5006796;28;20224;-72
2021/08/30 00:06:10;;;;;;;9.87;5.10;;;15.00;99.00;;;;;;5012210;28;20236;-73
2021/08/30 00:08:36;;;;;;;9.90;5.70;;;15.10;99.10;;;;;;5006749;28;20499;-73
2021/08/30 00:11:03;;;;;;;8.67;4.70;;;15.00;99.10;;;;;;5012794;28;20436;-72
2021/08/30 00:13:30;;;;;;;11.90;6.53;;;15.00;99.10;;;;;;5011868;28;20449;-72
2021/08/30 00:15:57;;;;;;;11.87;6.97;;;15.10;99.30;;;;;;5013346;28;20511;-75
2021/08/30 00:18:26;;;;;;;11.87;7.60;;;15.10;99.30;;;;;;5011534;28;20965;-72
2021/08/30 00:20:52;;;;;;;10.93;6.20;;;15.10;99.20;;;;;;5011583;28;20456;-74
2021/08/30 00:23:18;;;;;;;12.40;7.07;;;15.00;99.20;;;;;;5012771;28;20456;-74
2021/08/30 00:25:44;;;;;;;14.07;7.83;;;15.10;99.30;;;;;;5011966;28;20424;-73
2021/08/30 00:28:10;;;;;;;12.30;6.90;;;15.10;99.30;;;;;;5011725;28;20476;-72
2021/08/30 00:30:37;;;;;;;12.20;7.40;;;15.00;99.40;;;;;;5011192;28;20189;-73
2021/08/30 00:33:03;;;;;;;12.13;6.97;;;15.00;99.20;;;;;;5012411;28;20437;-72
2021/08/30 00:35:28;;;;;;;13.43;7.53;;;15.10;99.20;;;;;;5014150;28;20429;-73
2021/08/30 00:37:54;;;;;;;13.70;6.90;;;15.00;99.20;;;;;;5017011;28;20436;-72
2021/08/30 00:40:20;;;;;;;10.23;6.73;;;15.10;99.30;;;;;;5017005;28;20189;-73
2021/08/30 00:42:47;;;;;;;14.97;8.77;;;15.10;99.10;;;;;;5016456;28;20209;-73
2021/08/30 00:45:16;;;;;;;11.37;7.10;;;15.00;99.00;;;;;;5012344;28;20436;-74
2021/08/30 00:47:43;;;;;;;13.83;7.73;;;15.00;99.00;;;;;;5014144;28;20487;-74
2021/08/30 00:50:12;;;;;;;12.23;7.47;;;15.10;99.10;;;;;;5014552;28;20429;-72
2021/08/30 00:52:39;;;;;;;11.10;6.53;;;15.10;99.00;;;;;;5013299;28;20448;-74
2021/08/30 00:55:06;;;;;;;11.63;6.97;;;15.20;98.80;;;;;;5013042;28;20429;-73
2021/08/30 00:57:32;;;;;;;12.50;7.37;;;15.20;98.60;;;;;;5012588;28;20916;-73
2021/08/30 00:59:57;;;;;;;12.23;7.40;;;15.10;98.60;;;;;;5012088;28;20435;-74
2021/08/30 01:02:24;;;;;;;14.33;8.10;;;15.20;98.50;;;;;;5012549;28;20216;-74
2021/08/30 01:04:50;;;;;;;14.30;7.73;;;15.20;98.60;;;;;;5012246;28;20749;-73
2021/08/30 01:07:57;;;;;;;11.43;7.30;;;15.20;98.50;;;;;;5013768;28;20441;-73
2021/08/30 01:10:44;;;;;;;13.80;8.07;;;15.20;98.60;;;;;;5014850;28;20682;-73
2021/08/30 01:13:17;;;;;;;14.80;8.70;;;15.20;98.40;;;;;;5013729;28;20445;-71
2021/08/30 01:15:44;;;;;;;14.10;8.63;;;15.20;98.40;;;;;;5015925;28;20421;-75
2021/08/30 01:18:21;;;;;;;12.63;7.70;;;15.10;98.60;;;;;;5015832;28;20482;-74
2021/08/30 01:21:05;;;;;;;17.70;8.90;;;15.20;98.50;;;;;;5011704;28;20425;-72
2021/08/30 01:23:36;;;;;;;12.63;8.13;;;15.10;98.50;;;;;;5007810;28;20445;-75
2021/08/30 01:26:03;;;;;;;13.20;8.43;;;15.10;98.70;;;;;;5005540;28;20432;-72
2021/08/30 01:28:52;;;;;;;15.60;9.40;;;15.20;98.70;;;;;;5011325;28;20472;-74
2021/08/30 01:31:27;;;;;;;14.10;8.80;;;15.20;98.50;;;;;;5013407;28;20436;-73
2021/08/30 01:33:53;;;;;;;13.10;8.83;;;15.20;98.50;;;;;;5006895;28;20444;-73
2021/08/30 01:36:20;;;;;;;14.30;7.67;;;15.20;98.40;;;;;;5013326;28;20447;-73
2021/08/30 01:38:48;;;;;;;11.10;6.77;;;15.20;98.30;;;;;;5013174;28;20197;-74
2021/08/30 01:41:18;;;;;;;13.27;8.63;;;15.20;98.30;;;;;;5013413;28;20429;-73
2021/08/30 01:43:45;;;;;;;12.63;8.40;;;15.20;98.30;;;;;;5011556;28;20449;-73
2021/08/30 01:46:12;;;;;;;12.93;8.60;;;15.30;98.20;;;;;;5013410;28;20514;-73
2021/08/30 01:48:39;;;;;;;14.70;8.60;;;15.20;97.90;;;;;;5009940;28;20877;-75
2021/08/30 01:51:06;;;;;;;13.37;7.40;;;15.20;98.00;;;;;;5010507;28;20523;-72
2021/08/30 01:53:31;;;;;;;11.33;7.70;;;15.20;98.00;;;;;;5006971;28;20441;-72
2021/08/30 01:56:03;;;;;;;14.43;8.90;;;15.20;98.00;;;;;;5006181;28;20435;-73
2021/08/30 02:00:55;;;;;;;12.10;8.10;;;15.20;98.00;;;;;;5012416;28;20436;-74
2021/08/30 02:03:31;;;;;;;12.30;8.47;;;15.10;98.30;;;;;;5012650;28;20253;-73
2021/08/30 02:06:05;;;;;;;13.30;8.87;;;15.10;98.30;;;;;;5010415;28;20436;-74
2021/08/30 02:08:33;;;;;;;14.07;9.83;;;15.20;98.20;;;;;;5009293;28;20469;-75
2021/08/30 02:11:04;;;;;;;11.13;7.13;;;15.20;98.20;;;;;;5010458;28;20849;-72
2021/08/30 02:13:30;;;;;;;13.90;9.10;;;15.20;98.20;;;;;;5002184;28;20460;-73
2021/08/30 02:16:01;;;;;;;9.50;7.00;;;15.20;98.10;;;;;;5009315;28;20456;-73
2021/08/30 02:18:36;;;;;;;12.83;7.83;;;15.20;98.10;;;;;;5009506;28;20919;-72
2021/08/30 02:21:22;;;;;;;15.67;9.30;;;15.20;97.90;;;;;;5012818;28;20522;-73
2021/08/30 02:24:01;;;;;;;15.50;8.80;;;15.20;97.90;;;;;;5015317;28;20449;-72
2021/08/30 02:26:47;;;;;;;14.70;8.77;;;15.20;97.90;;;;;;5004317;28;20432;-73
2021/08/30 02:29:17;;;;;;;14.50;8.23;;;15.20;97.60;;;;;;5018490;28;20468;-73
2021/08/30 02:31:48;;;;;;;13.93;8.63;;;15.20;97.80;;;;;;5011491;28;20891;-72
2021/08/30 02:34:18;;;;;;;13.33;9.00;;;15.20;98.10;;;;;;5009602;28;20433;-73
2021/08/30 02:36:44;;;;;;;13.93;8.60;;;15.20;98.20;;;;;;5009721;28;20903;-73
2021/08/30 02:39:11;;;;;;;15.13;9.43;;;15.20;98.50;;;;;;5006370;28;20496;-72
2021/08/30 02:41:38;;;;;;;16.70;8.60;;;15.10;98.80;;;;;;5010220;28;20417;-72
2021/08/30 02:44:04;;;;;;;14.37;8.63;;;15.00;99.10;;;;;;5009577;28;20528;-74
2021/08/30 02:46:31;;;;;;;14.20;8.70;;;14.90;99.20;;;;;;5013514;28;20506;-74
2021/08/30 02:48:58;;;;;;;15.20;9.00;;;14.90;99.50;;;;;;5007382;28;20496;-72
2021/08/30 02:51:25;;;;;;;13.20;7.43;;;14.80;99.80;;;;;;5008496;28;20512;-72
2021/08/30 02:53:53;;;;;;;16.73;9.97;;;14.80;99.90;;;;;;5004778;28;21002;-73
2021/08/30 02:56:19;;;;;;;12.60;8.43;;;14.80;99.90;;;;;;5012677;28;20526;-76
2021/08/30 02:58:45;;;;;;;15.70;9.00;;;14.70;99.90;;;;;;5012610;28;20437;-72
2021/08/30 03:01:12;;;;;;;11.20;7.03;;;14.70;99.90;;;;;;5014231;28;20433;-73
2021/08/30 03:03:38;;;;;;;11.73;7.00;;;14.60;99.90;;;;;;5013830;28;20464;-72
2021/08/30 03:06:05;;;;;;;10.63;6.80;;;14.60;99.90;;;;;;5014102;28;20429;-73
2021/08/30 03:08:31;;;;;;;11.70;6.10;;;14.60;99.90;;;;;;5010947;28;20559;-76
2021/08/30 03:10:58;;;;;;;11.53;6.93;;;14.60;99.90;;;;;;5014086;28;20461;-74
2021/08/30 03:13:24;;;;;;;10.07;6.73;;;14.60;99.90;;;;;;5014066;28;20209;-72
2021/08/30 03:15:51;;;;;;;10.20;6.43;;;14.60;99.90;;;;;;5013640;28;20447;-75
2021/08/30 03:18:18;;;;;;;11.03;6.87;;;14.60;99.90;;;;;;5012781;28;20444;-74
2021/08/30 03:20:45;;;;;;;8.93;5.80;;;14.60;99.90;;;;;;5013525;28;20420;-75
2021/08/30 03:23:12;;;;;;;10.40;6.30;;;14.60;99.90;;;;;;5013338;28;20464;-72
2021/08/30 03:25:38;;;;;;;8.37;5.77;;;14.60;99.90;;;;;;5014087;28;20413;-74
2021/08/30 03:28:07;;;;;;;8.20;4.93;;;14.60;99.90;;;;;;5012363;28;20486;-74
2021/08/30 03:30:33;;;;;;;8.40;5.37;;;14.70;99.90;;;;;;5012017;28;20444;-75
2021/08/30 03:33:01;;;;;;;7.03;4.93;;;14.70;99.90;;;;;;5013096;28;20751;-74
2021/08/30 03:35:29;;;;;;;8.17;5.70;;;14.70;99.90;;;;;;5011653;28;20425;-73
2021/08/30 03:37:56;;;;;;;7.00;5.10;;;14.70;99.90;;;;;;5012376;28;20429;-74
2021/08/30 03:40:23;;;;;;;6.80;5.17;;;14.70;99.90;;;;;;5012201;28;20459;-72
2021/08/30 03:42:50;;;;;;;7.70;5.37;;;14.70;99.90;;;;;;5011685;28;20445;-77
2021/08/30 03:45:16;;;;;;;11.10;6.23;;;14.70;99.90;;;;;;5012561;28;20632;-73
2021/08/30 03:47:42;;;;;;;8.37;5.70;;;14.80;99.90;;;;;;5012274;28;20992;-74
2021/08/30 03:50:12;;;;;;;10.00;6.20;;;14.80;99.90;;;;;;5012709;28;20423;-73
2021/08/30 03:52:40;;;;;;;13.23;7.30;;;14.80;99.90;;;;;;5011544;28;20437;-73
2021/08/30 03:55:10;;;;;;;10.63;6.70;;;14.70;99.90;;;;;;5012318;28;20495;-74
2021/08/30 03:57:37;;;;;;;12.03;7.00;;;14.70;99.90;;;;;;5012557;28;20496;-75
2021/08/30 04:00:05;;;;;;;13.30;7.77;;;14.80;99.90;;;;;;5011232;28;20424;-75
2021/08/30 04:02:32;;;;;;;12.23;7.73;;;14.70;99.90;;;;;;5005023;28;20499;-75
2021/08/30 04:04:59;;;;;;;10.60;7.10;;;14.70;99.90;;;;;;5010804;28;20428;-76
2021/08/30 04:07:25;;;;;;;16.07;8.53;;;14.80;99.90;;;;;;5011364;28;20929;-74
2021/08/30 04:09:51;;;;;;;12.40;8.00;;;14.80;99.90;;;;;;5012841;28;20421;-74
2021/08/30 04:12:21;;;;;;;12.87;7.00;;;14.90;99.90;;;;;;5004210;28;20438;-75
2021/08/30 04:14:48;;;;;;;13.20;8.07;;;14.80;99.90;;;;;;5011706;28;20935;-74
2021/08/30 04:17:14;;;;;;;14.03;7.40;;;14.90;99.90;;;;;;5011103;28;20483;-73
2021/08/30 04:19:40;;;;;;;12.60;7.77;;;14.90;99.90;;;;;;5011896;28;20452;-74
2021/08/30 04:22:06;;;;;;;13.57;8.00;;;14.90;99.90;;;;;;5011398;28;20185;-74
2021/08/30 04:24:32;;;;;;;18.70;9.40;;;14.90;99.90;;;;;;5012731;28;20425;-74
2021/08/30 04:26:57;;;;;;;20.40;9.67;;;14.90;99.90;;;;;;5010528;28;20186;-74
2021/08/30 04:29:23;;;;;;;16.33;9.50;;;14.90;99.90;;;;;;5010111;28;20672;-74
2021/08/30 04:31:50;;;;;;;16.40;8.57;;;14.90;99.90;;;;;;5012437;28;20194;-74
2021/08/30 04:34:25;;;;;;;18.47;10.10;;;14.90;99.90;;;;;;5011739;28;20209;-75
2021/08/30 04:36:51;;;;;;;19.50;9.50;;;14.90;99.90;;;;;;5012243;28;20481;-75
2021/08/30 04:39:17;;;;;;;16.93;8.97;;;14.90;99.90;;;;;;5010527;28;20441;-75
2021/08/30 04:41:43;;;;;;;17.10;10.23;;;14.90;99.90;;;;;;5006240;28;20490;-73
2021/08/30 04:44:11;;;;;;;18.87;10.20;;;14.90;99.90;;;;;;5010412;28;21022;-75
2021/08/30 04:46:37;;;;;;;18.43;10.30;;;14.90;99.90;;;;;;5012194;28;20424;-75
2021/08/30 04:49:03;;;;;;;16.60;9.27;;;15.00;99.90;;;;;;5007034;28;20464;-75
2021/08/30 04:51:29;;;;;;;21.50;11.10;;;15.00;99.90;;;;;;5004773;28;20479;-77
2021/08/30 04:53:55;;;;;;;21.43;11.30;;;15.00;99.90;;;;;;5008785;28;20531;-76
2021/08/30 04:56:20;;;;;;;19.70;10.30;;;15.00;99.90;;;;;;5011870;28;20193;-75
2021/08/30 04:58:46;;;;;;;20.07;10.47;;;15.00;99.90;;;;;;5011735;28;20240;-75
2021/08/30 05:01:12;;;;;;;18.47;10.57;;;15.00;99.90;;;;;;5010944;28;20193;-75
2021/08/30 05:03:37;;;;;;;17.87;10.20;;;15.00;99.90;;;;;;5012237;28;20201;-73
2021/08/30 05:06:03;;;;;;;15.57;9.10;;;15.00;99.90;;;;;;5012107;28;20236;-72
2021/08/30 05:08:29;;;;;;;21.90;10.60;;;14.90;99.90;;;;;;5010312;28;20667;-75
2021/08/30 05:10:55;;;;;;;20.00;8.47;;;14.90;99.90;;;;;;5011884;28;20431;-75
2021/08/30 05:13:22;;;;;;;13.53;7.30;;;14.90;99.90;;;;;;5009992;28;20452;-75
2021/08/30 05:15:48;;;;;;;17.90;8.00;;;14.90;99.90;;;;;;5011679;28;20216;-74
2021/08/30 05:18:14;;;;;;;13.70;8.30;;;14.90;99.90;;;;;;5010492;28;20432;-75
2021/08/30 05:20:40;;;;;;;12.97;7.90;;;14.90;99.90;;;;;;5011789;28;20421;-74
2021/08/30 05:23:06;;;;;;;15.27;7.90;;;14.90;99.90;;;;;;5010372;28;20449;-75
2021/08/30 05:25:32;;;;;;;16.67;9.00;;;14.90;99.90;;;;;;5011492;28;20293;-75
2021/08/30 05:27:57;;;;;;;21.43;10.37;;;14.90;99.90;;;;;;5011118;28;20198;-76
2021/08/30 05:30:23;;;;;;;16.97;9.90;;;14.80;99.90;;;;;;5012239;28;20432;-76
2021/08/30 05:32:49;;;;;;;20.40;10.17;;;14.80;99.90;;;;;;5012524;28;20256;-75
2021/08/30 05:35:15;;;;;;;20.43;11.03;;;14.80;99.90;;;;;;5012169;28;20275;-74
2021/08/30 05:37:41;;;;;;;18.27;9.10;;;14.80;99.90;;;;;;5008840;28;20838;-74
2021/08/30 05:40:07;;;;;;;18.70;9.33;;;14.80;99.90;;;;;;5014647;28;20182;-74
2021/08/30 05:42:33;;;;;;;19.00;10.20;;;14.80;99.90;;;;;;5012122;28;20212;-74
2021/08/30 05:44:58;;;;;;;19.37;10.77;;;14.90;99.90;;;;;;5014682;28;20806;-73
2021/08/30 05:47:24;;;;;;;19.43;11.60;;;14.90;99.90;;;;;;5014144;28;20186;-74
2021/08/30 05:49:50;;;;;;;22.20;10.07;;;14.90;99.90;;;;;;5015839;28;20186;-75
2021/08/30 05:52:16;;;;;;;20.23;9.93;;;14.90;99.90;;;;;;5010916;28;20212;-74
2021/08/30 05:54:42;;;;;;;16.90;10.23;;;15.00;99.90;;;;;;5009416;28;20178;-73
2021/08/30 05:57:07;;;;;;;18.63;9.97;;;15.00;99.90;;;;;;5008655;28;20679;-73
2021/08/30 05:59:36;;;;;;;18.00;10.03;;;15.00;99.90;;;;;;5011116;28;20553;-75
2021/08/30 06:02:02;;;;;;;17.87;10.17;;;15.00;99.90;;;;;;5009334;28;20201;-74
2021/08/30 06:04:28;;;;;;;16.57;9.90;;;15.10;99.90;;;;;;5011299;28;20420;-74
2021/08/30 06:06:53;;;;;;;16.90;9.80;;;15.10;99.90;;;;;;5006395;28;20975;-75
2021/08/30 06:09:19;;;;;;;18.43;9.80;;;15.10;99.90;;;;;;5011513;28;20235;-74
2021/08/30 06:11:47;;;;;;;15.43;9.20;;;15.10;99.90;;;;;;5012394;28;20711;-73
2021/08/30 06:14:12;;;;;;;18.90;10.70;;;15.20;99.90;;;;;;5011380;28;20206;-73
2021/08/30 06:16:38;;;;;;;21.40;10.23;;;15.20;99.90;;;;;;5016448;28;20527;-75
2021/08/30 06:19:04;;;;;;;18.60;9.97;;;15.20;99.80;;;;;;5012506;28;20751;-72
2021/08/30 06:21:30;;;;;;;18.93;10.00;;;15.30;99.90;;;;;;5010423;28;20192;-73
2021/08/30 06:23:55;;;;;;;18.63;9.63;;;15.50;99.80;;;;;;5017064;28;20581;-74
2021/08/30 06:26:21;;;;;;;23.40;10.67;;;15.40;99.40;;;;;;5012157;28;20279;-73
2021/08/30 06:28:47;;;;;;;18.07;9.07;;;15.40;99.30;;;;;;5015282;28;20645;-73
2021/08/30 06:31:12;;;;;;;15.30;9.70;;;15.40;99.40;;;;;;5011446;28;20237;-72
2021/08/30 06:33:38;;;;;;;14.37;9.17;;;15.50;99.30;;;;;;5009740;28;20212;-75
2021/08/30 06:36:04;;;;;;;14.73;8.67;;;15.60;99.10;;;;;;5011034;28;20190;-74
2021/08/30 06:38:30;;;;;;;18.70;9.60;;;15.70;99.10;;;;;;5011380;28;20665;-74
2021/08/30 06:40:55;;;;;;;15.97;9.80;;;15.70;98.60;;;;;;5011317;28;20433;-72
2021/08/30 06:43:21;;;;;;;15.50;9.60;;;15.80;98.40;;;;;;5011097;28;20665;-74
2021/08/30 06:45:47;;;;;;;14.27;8.63;;;15.80;98.50;;;;;;5011055;28;20269;-75
2021/08/30 06:48:13;;;;;;;17.40;9.63;;;15.90;98.20;;;;;;5010363;28;20213;-74
2021/08/30 06:50:38;;;;;;;17.97;9.53;;;15.90;97.90;;;;;;5010864;28;20656;-75
2021/08/30 06:53:04;;;;;;;21.73;10.20;;;15.80;97.70;;;;;;5010989;28;20260;-73
2021/08/30 06:55:30;;;;;;;14.97;9.03;;;15.90;97.90;;;;;;5010919;28;20619;-78
2021/08/30 06:57:56;;;;;;;17.23;9.50;;;15.90;97.90;;;;;;5010655;28;20205;-75
2021/08/30 07:00:21;;;;;;;14.67;9.40;;;15.80;97.50;;;;;;5010707;28;20190;-75
2021/08/30 07:02:47;;;;;;;14.70;9.60;;;15.80;97.60;;;;;;5010590;28;20210;-74
2021/08/30 07:05:13;;;;;;;16.90;8.97;;;15.80;97.50;;;;;;5007980;28;20196;-77
2021/08/30 07:07:39;;;;;;;16.70;9.93;;;15.90;97.60;;;;;;5009834;28;20202;-75
2021/08/30 07:10:05;;;;;;;16.90;9.80;;;15.90;97.70;;;;;;5010814;28;20218;-76
2021/08/30 07:12:31;;;;;;;15.97;9.67;;;15.90;97.70;;;;;;5008033;28;20823;-75
2021/08/30 07:14:56;;;;;;;18.80;10.00;;;15.90;97.60;;;;;;5010628;28;20417;-76
2021/08/30 07:17:22;;;;;;;17.80;9.37;;;16.00;97.20;;;;;;5010329;28;20205;-77
2021/08/30 07:19:48;;;;;;;17.17;9.50;;;16.10;97.30;;;;;;5010983;28;20670;-78
2021/08/30 07:22:14;;;;;;;15.23;8.97;;;16.20;97.30;;;;;;5010923;28;20209;-77
2021/08/30 07:24:40;;;;;;;16.10;8.83;;;16.20;96.40;;;;;;5010527;28;20178;-73
2021/08/30 07:27:05;;;;;;;21.53;10.00;;;16.30;96.30;;;;;;5010420;28;20187;-75
2021/08/30 07:29:32;;;;;;;19.43;10.63;;;16.20;96.40;;;;;;5010740;28;20206;-75
2021/08/30 07:31:58;;;;;;;14.83;8.80;;;16.20;96.50;;;;;;5012548;28;20188;-74
2021/08/30 07:34:27;;;;;;;17.23;9.27;;;16.20;96.40;;;;;;5015382;28;20441;-74
2021/08/30 07:36:54;;;;;;;14.70;8.40;;;16.20;96.50;;;;;;5009457;28;20421;-74
2021/08/30 07:39:21;;;;;;;19.20;8.80;;;16.30;96.60;;;;;;5011739;28;20455;-75
2021/08/30 07:41:47;;;;;;;16.33;9.50;;;16.30;96.50;;;;;;5014789;28;20463;-73
2021/08/30 07:44:14;;;;;;;14.90;9.03;;;16.30;96.30;;;;;;5014624;28;20453;-74
2021/08/30 07:46:40;;;;;;;16.20;9.33;;;16.30;96.50;;;;;;5013988;28;20421;-76
2021/08/30 07:49:06;;;;;;;15.40;9.70;;;16.40;96.50;;;;;;5012966;28;20464;-76
2021/08/30 07:51:33;;;;;;;14.40;9.23;;;16.40;96.40;;;;;;5013763;28;20790;-73
2021/08/30 07:54:00;;;;;;;16.30;9.93;;;16.40;96.10;;;;;;5013690;28;20438;-75
2021/08/30 07:56:26;;;;;;;15.80;9.47;;;16.30;96.40;;;;;;5013445;28;20512;-75
2021/08/30 07:58:51;;;;;;;18.83;9.93;;;16.30;96.40;;;;;;5013955;28;20487;-74
2021/08/30 08:01:17;;;;;;;17.60;10.07;;;16.20;96.50;;;;;;5014022;28;20425;-73
2021/08/30 08:03:43;;;;;;;14.50;9.23;;;16.10;96.70;;;;;;5013721;28;20209;-74
2021/08/30 08:06:09;;;;;;;16.30;9.93;;;16.10;97.00;;;;;;5013890;28;20281;-74
2021/08/30 08:08:35;;;;;;;14.73;8.97;;;16.20;97.20;;;;;;5014154;28;20582;-76
2021/08/30 08:11:00;;;;;;;15.57;9.27;;;16.20;97.10;;;;;;5013717;28;20616;-74
2021/08/30 08:13:29;;;;;;;16.13;9.40;;;16.20;97.10;;;;;;5013397;28;20218;-75
2021/08/30 08:15:55;;;;;;;13.90;8.50;;;16.30;97.40;;;;;;5013577;28;20226;-73
2021/08/30 08:18:21;;;;;;;15.70;10.13;;;16.30;97.20;;;;;;5013606;28;20534;-75
2021/08/30 08:20:47;;;;;;;15.00;9.30;;;16.40;97.40;;;;;;5015426;28;20508;-77
2021/08/30 08:23:12;;;;;;;14.30;8.63;;;16.30;97.10;;;;;;5015685;28;20289;-76
2021/08/30 08:25:38;;;;;;;15.80;9.77;;;16.30;97.60;;;;;;5014559;28;20467;-77
2021/08/30 08:28:06;;;;;;;15.87;9.90;;;16.30;97.60;;;;;;5014002;28;20227;-76
2021/08/30 08:30:32;;;;;;;14.47;8.93;;;16.20;97.50;;;;;;5014182;28;20189;-77
2021/08/30 08:32:58;;;;;;;16.30;8.90;;;16.20;97.90;;;;;;5014224;28;20476;-76
2021/08/30 08:35:24;;;;;;;14.20;9.60;;;16.40;98.20;;;;;;5010204;28;20819;-75
2021/08/30 08:37:50;;;;;;;14.67;8.43;;;16.50;98.00;;;;;;5009263;28;20448;-76
2021/08/30 08:40:16;;;;;;;14.20;8.93;;;16.60;97.40;;;;;;5013156;28;20186;-77
2021/08/30 08:42:43;;;;;;;13.30;8.30;;;16.50;96.80;;;;;;5015999;28;20211;-78
2021/08/30 08:45:12;;;;;;;13.37;8.20;;;16.50;96.80;;;;;;5017237;28;20428;-77
2021/08/30 08:47:39;;;;;;;15.27;8.03;;;16.50;96.50;;;;;;5016118;28;20480;-76
2021/08/30 08:50:07;;;;;;;11.70;8.43;;;16.50;97.00;;;;;;5014896;28;20429;-77
2021/08/30 08:52:36;;;;;;;12.73;8.17;;;16.40;97.10;;;;;;5015034;28;20441;-76
2021/08/30 08:55:03;;;;;;;14.20;8.00;;;16.40;97.40;;;;;;5020161;28;20780;-77
2021/08/30 08:57:29;;;;;;;15.00;7.87;;;16.40;97.60;;;;;;5013115;28;20421;-75
2021/08/30 09:00:05;;;;;;;11.77;7.60;;;16.30;97.80;;;;;;5014803;28;20504;-76
2021/08/30 09:02:33;;;;;;;13.10;7.20;;;16.20;97.70;;;;;;5013753;28;20433;-77
2021/08/30 09:05:00;;;;;;;10.80;7.70;;;16.30;97.80;;;;;;5014041;28;20633;-77
2021/08/30 09:07:42;;;;;;;10.80;7.80;;;16.40;97.80;;;;;;5011585;28;20420;-76
2021/08/30 09:10:18;;;;;;;13.10;7.60;;;16.60;97.80;;;;;;5017148;28;20433;-77
2021/08/30 09:12:46;;;;;;;13.63;7.87;;;16.80;97.10;;;;;;5011063;28;21022;-77
2021/08/30 09:15:23;;;;;;;14.03;8.10;;;17.00;96.70;;;;;;5013036;28;20934;-77
2021/08/30 09:17:51;;;;;;;16.30;9.47;;;17.20;96.10;;;;;;5011657;28;20455;-78
2021/08/30 09:20:18;;;;;;;11.77;7.83;;;17.40;96.00;;;;;;5013895;28;20437;-77
2021/08/30 09:22:44;;;;;;;16.40;8.40;;;17.40;94.80;;;;;;5013486;28;20446;-77
2021/08/30 09:25:11;;;;;;;14.23;7.90;;;17.40;94.60;;;;;;5012598;28;20439;-76
2021/08/30 09:27:40;;;;;;;12.40;7.97;;;17.20;94.90;;;;;;5011786;28;20469;-76
2021/08/30 09:30:07;;;;;;;15.10;8.23;;;17.40;95.20;;;;;;5014222;28;20475;-78
2021/08/30 09:32:34;;;;;;;15.90;10.10;;;17.60;94.90;;;;;;5014124;28;20952;-76
2021/08/30 09:35:02;;;;;;;13.00;7.30;;;17.50;94.00;;;;;;5013451;28;20428;-76
2021/08/30 09:37:28;;;;;;;18.30;8.47;;;17.50;93.60;;;;;;5019342;28;20421;-76
2021/08/30 09:39:58;;;;;;;18.43;9.80;;;17.80;93.70;;;;;;5015621;28;20438;-76
2021/08/30 09:42:26;;;;;;;17.53;8.87;;;18.00;93.50;;;;;;5014251;28;20460;-76
2021/08/30 09:44:54;;;;;;;17.40;9.73;;;18.00;92.80;;;;;;5016683;28;20423;-76
2021/08/30 09:47:21;;;;;;;15.50;9.40;;;17.90;92.40;;;;;;5016318;28;20430;-77
2021/08/30 09:49:51;;;;;;;17.40;9.70;;;17.80;93.00;;;;;;5019099;28;20967;-76
2021/08/30 09:52:21;;;;;;;16.20;10.03;;;17.60;93.80;;;;;;5015106;28;20484;-77
2021/08/30 09:54:48;;;;;;;19.07;10.80;;;17.50;94.50;;;;;;5021589;28;20503;-76
2021/08/30 09:57:15;;;;;;;17.33;9.63;;;17.20;94.50;;;;;;5019333;28;20511;-78
2021/08/30 09:59:45;;;;;;;20.77;11.07;;;17.10;95.50;;;;;;5017262;28;20779;-79
2021/08/30 10:02:16;;;;;;;19.10;11.20;;;17.10;96.20;;;;;;5014842;28;20490;-79
2021/08/30 10:04:44;;;;;;;23.00;12.77;;;16.90;96.10;;;;;;5013510;28;20428;-79
2021/08/30 10:07:11;;;;;;;23.70;11.83;;;16.80;96.30;;;;;;5016122;28;20452;-78
2021/08/30 10:09:39;;;;;;;21.73;12.30;;;16.70;97.00;;;;;;5014344;28;20606;-77
2021/08/30 10:12:05;;;;;;;22.90;12.20;;;16.60;97.20;;;;;;5012254;28;20425;-76
2021/08/30 10:14:31;;;;;;;19.93;11.47;;;16.50;97.50;;;;;;5012573;28;20413;-77
2021/08/30 10:16:58;;;;;;;27.73;13.07;;;16.40;97.70;;;;;;5008142;28;20430;-75
2021/08/30 10:19:34;;;;;;;26.80;13.00;;;16.40;97.90;;;;;;5011489;28;20950;-75
2021/08/30 10:22:13;;;;;;;24.23;13.27;;;16.40;98.10;;;;;;5008595;28;21106;-77
2021/08/30 10:24:40;;;;;;;24.00;12.47;;;16.50;97.90;;;;;;5004696;28;21046;-74
2021/08/30 10:27:09;;;;;;;21.07;13.13;;;16.50;98.10;;;;;;5010178;28;20428;-73
2021/08/30 10:29:38;;;;;;;24.73;13.40;;;16.60;98.10;;;;;;5010355;28;21057;-73
2021/08/30 10:32:04;;;;;;;25.23;13.27;;;16.60;98.10;;;;;;5010588;28;20421;-76
2021/08/30 10:34:33;;;;;;;22.83;13.33;;;16.60;98.00;;;;;;5004133;28;20476;-73
2021/08/30 10:37:01;;;;;;;20.80;11.97;;;16.50;98.30;;;;;;5011388;28;20425;-74
2021/08/30 10:39:42;;;;;;;25.70;13.97;;;16.40;98.40;;;;;;5007391;28;20445;-74
2021/08/30 10:42:12;;;;;;;23.07;12.80;;;16.40;98.30;;;;;;5009083;28;20970;-73
2021/08/30 10:44:56;;;;;;;22.03;12.17;;;16.40;98.50;;;;;;5011893;28;21252;-74
2021/08/30 10:47:32;;;;;;;19.03;11.27;;;16.50;98.40;;;;;;5009922;28;20420;-73
2021/08/30 10:49:58;;;;;;;23.03;12.57;;;16.70;98.40;;;;;;5010351;28;20412;-74
2021/08/30 10:52:24;;;;;;;25.47;12.43;;;16.80;97.60;;;;;;5009948;28;20447;-75
2021/08/30 10:54:58;;;;;;;18.60;11.60;;;16.90;97.50;;;;;;5010102;28;20261;-74
2021/08/30 10:57:51;;;;;;;20.80;11.90;;;17.00;96.80;;;;;;5010024;28;20498;-75
2021/08/30 11:00:27;;;;;;;22.50;12.00;;;16.90;96.60;;;;;;5007251;28;20960;-75
2021/08/30 11:02:53;;;;;;;17.50;11.73;;;16.90;96.60;;;;;;5010446;28;20494;-74
2021/08/30 11:05:25;;;;;;;19.47;10.90;;;16.80;97.20;;;;;;5007046;28;20442;-74
2021/08/30 11:07:52;;;;;;;20.57;11.40;;;16.70;97.40;;;;;;5009058;28;20209;-74
2021/08/30 11:10:19;;;;;;;18.47;10.73;;;16.80;97.60;;;;;;5009005;28;20521;-75
2021/08/30 11:12:45;;;;;;;15.70;8.90;;;16.90;97.50;;;;;;5009526;28;20461;-76
2021/08/30 11:15:11;;;;;;;17.17;9.30;;;17.00;96.60;;;;;;5009072;28;20424;-74
2021/08/30 11:17:37;;;;;;;19.57;9.97;;;17.10;96.50;;;;;;5013256;28;20494;-74
2021/08/30 11:20:05;;;;;;;16.03;8.47;;;17.50;96.70;;;;;;5013498;28;20424;-74
2021/08/30 11:22:31;;;;;;;19.53;10.43;;;17.80;94.80;;;;;;5013410;28;20449;-74
2021/08/30 11:25:01;;;;;;;12.07;7.87;;;18.00;94.40;;;;;;5012894;28;20790;-76
2021/08/30 11:27:30;;;;;;;14.40;7.80;;;18.00;92.30;;;;;;5005809;28;20427;-74
2021/08/30 11:30:12;;;;;;;11.73;7.57;;;18.00;91.70;;;;;;5013312;28;20782;-74
2021/08/30 11:32:40;;;;;;;15.40;8.00;;;18.00;91.20;;;;;;5007006;28;20502;-75
2021/08/30 11:35:08;;;;;;;16.80;8.93;;;18.10;91.40;;;;;;5004163;28;20424;-74
2021/08/30 11:37:35;;;;;;;15.10;8.30;;;18.10;91.20;;;;;;5013595;28;20408;-72
2021/08/30 11:40:05;;;;;;;15.57;8.10;;;18.00;91.50;;;;;;5012789;28;20431;-74
2021/08/30 11:42:33;;;;;;;14.03;8.10;;;18.10;91.80;;;;;;5013256;28;20486;-74
2021/08/30 11:45:01;;;;;;;16.07;8.50;;;18.30;92.20;;;;;;5013007;28;20768;-75
2021/08/30 11:47:28;;;;;;;14.60;8.63;;;18.20;91.20;;;;;;5012272;28;20423;-73
2021/08/30 11:49:59;;;;;;;14.47;8.70;;;18.00;91.60;;;;;;5012546;28;20419;-74
2021/08/30 11:52:28;;;;;;;18.00;8.90;;;17.90;92.00;;;;;;5011737;28;20502;-73
2021/08/30 11:55:03;;;;;;;16.37;9.17;;;17.80;91.70;;;;;;5012646;28;20417;-72
2021/08/30 11:57:48;;;;;;;19.80;10.93;;;17.90;92.20;;;;;;5004825;28;20452;-74
2021/08/30 12:00:15;;;;;;;18.83;9.73;;;17.90;91.90;;;;;;5012465;28;20427;-74
2021/08/30 12:02:42;;;;;;;14.80;8.70;;;17.90;91.90;;;;;;5004825;28;20443;-72
2021/08/30 12:05:09;;;;;;;19.03;11.80;;;18.00;92.20;;;;;;5012790;28;20427;-73
2021/08/30 12:07:36;;;;;;;19.03;10.97;;;18.10;92.90;;;;;;5012735;28;20523;-75
2021/08/30 12:10:08;;;;;;;15.43;9.90;;;18.10;92.70;;;;;;5012238;28;20436;-74
2021/08/30 12:12:38;;;;;;;17.17;9.83;;;18.10;92.90;;;;;;5012546;28;20469;-72
2021/08/30 12:15:14;;;;;;;18.30;9.87;;;18.00;92.50;;;;;;5013000;28;20446;-73
2021/08/30 12:17:51;;;;;;;16.83;10.70;;;18.00;93.00;;;;;;5012055;28;20454;-74
2021/08/30 12:20:21;;;;;;;15.87;10.50;;;17.90;93.60;;;;;;5012553;28;20420;-76
2021/08/30 12:22:53;;;;;;;17.97;10.60;;;17.70;92.90;;;;;;5006454;28;20448;-74
2021/08/30 12:25:22;;;;;;;15.20;9.40;;;17.60;92.90;;;;;;5012617;28;20456;-73
2021/08/30 12:27:49;;;;;;;15.70;9.97;;;17.50;93.40;;;;;;5009547;28;20599;-74
2021/08/30 12:30:19;;;;;;;17.00;10.70;;;17.60;93.90;;;;;;5011944;28;20417;-73
2021/08/30 12:33:01;;;;;;;16.10;9.33;;;17.60;93.80;;;;;;5013184;28;20448;-73
2021/08/30 12:35:29;;;;;;;17.23;10.10;;;17.60;94.60;;;;;;5010175;28;20428;-75
2021/08/30 12:37:57;;;;;;;18.30;11.20;;;17.60;94.30;;;;;;5013179;28;21213;-73
2021/08/30 12:40:24;;;;;;;17.60;10.53;;;17.50;94.30;;;;;;5013026;28;20504;-75
2021/08/30 12:42:50;;;;;;;19.50;10.73;;;17.50;94.50;;;;;;5012917;28;20476;-75